Time;durP1;ratioP1;P1;durP2;ratioP2;P2;SDS_P1;SDS_P2;PMS_P1;PMS_P2;Temp;Humidity;BMP_temperature;BMP_pressure;BME280_temperature;BME280_humidity;BME280_pressure;Samples;Min_cycle;Max_cycle;Signal;HPM_P1;HPM_P2
2024/03/17 00:00:48;;;;;;;4.60;3.73;;;;;;;7.78;72.18;99652.09;5153750;27;41774;-76
2024/03/17 00:03:15;;;;;;;5.03;3.80;;;;;;;7.84;72.56;99655.34;5153393;27;40154;-76
2024/03/17 00:05:41;;;;;;;6.13;4.03;;;;;;;7.88;72.27;99653.44;5135564;27;40651;-80
2024/03/17 00:08:10;;;;;;;4.23;3.67;;;;;;;7.91;72.79;99650.69;5153005;27;43737;-78
2024/03/17 00:10:37;;;;;;;6.77;4.67;;;;;;;7.67;72.71;99609.44;5152504;27;42135;-78
2024/03/17 00:13:05;;;;;;;5.00;4.20;;;;;;;7.91;72.38;99650.69;5135877;27;38883;-75
2024/03/17 00:15:32;;;;;;;4.47;3.77;;;;;;;7.96;72.21;99661.91;5153849;27;42415;-76
2024/03/17 00:17:59;;;;;;;4.40;4.00;;;;;;;7.97;72.11;99661.00;5161257;27;42076;-75
2024/03/17 00:20:26;;;;;;;3.57;3.27;;;;;;;7.87;72.15;99649.09;5161417;27;42930;-78
2024/03/17 00:22:54;;;;;;;4.60;3.40;;;;;;;7.96;71.82;99659.25;5153518;27;40848;-77
2024/03/17 00:25:21;;;;;;;4.40;3.50;;;;;;;7.96;72.15;99669.81;5154601;27;41774;-78
2024/03/17 00:27:50;;;;;;;4.37;3.73;;;;;;;7.96;72.02;99664.53;5153203;27;42794;-79
2024/03/17 00:30:18;;;;;;;4.70;3.73;;;;;;;7.96;72.24;99658.41;5153836;27;43162;-76
2024/03/17 00:32:45;;;;;;;4.73;3.43;;;;;;;7.94;72.09;99661.09;5153227;27;39252;-76
2024/03/17 00:35:14;;;;;;;3.80;3.40;;;;;;;7.91;72.33;99662.06;5152743;27;41939;-75
2024/03/17 00:37:41;;;;;;;6.87;3.77;;;;;;;7.89;72.75;99652.53;5135561;27;44280;-77
2024/03/17 00:40:09;;;;;;;5.17;3.70;;;;;;;7.87;72.61;99659.63;5152570;27;42520;-81
2024/03/17 00:42:38;;;;;;;3.67;3.27;;;;;;;7.90;72.55;99654.25;5135748;27;40141;-75
2024/03/17 00:45:06;;;;;;;3.57;3.23;;;;;;;7.88;72.22;99649.03;5152280;27;41797;-76
2024/03/17 00:47:34;;;;;;;3.63;3.23;;;;;;;7.91;72.63;99651.53;5135461;27;41915;-80
2024/03/17 00:50:00;;;;;;;3.97;3.20;;;;;;;7.77;72.78;99616.09;5152546;27;43277;-76
2024/03/17 00:52:28;;;;;;;3.40;3.10;;;;;;;7.92;72.73;99649.75;5154264;27;40858;-77
2024/03/17 00:54:54;;;;;;;2.87;2.67;;;;;;;7.70;72.48;99614.59;5138365;27;42645;-77
2024/03/17 00:57:22;;;;;;;3.73;2.77;;;;;;;7.90;72.39;99643.69;5138994;27;41095;-77
2024/03/17 00:59:50;;;;;;;3.20;2.57;;;;;;;7.84;72.05;99638.66;5156089;27;42259;-79
2024/03/17 01:02:18;;;;;;;4.17;3.37;;;;;;;7.87;72.72;99643.81;5138884;27;38651;-79
2024/03/17 01:04:45;;;;;;;3.83;3.40;;;;;;;7.80;73.47;99631.75;5138847;27;41802;-79
2024/03/17 01:07:13;;;;;;;6.60;4.60;;;;;;;7.78;75.02;99628.34;5157071;27;42804;-75
2024/03/17 01:09:39;;;;;;;6.83;4.50;;;;;;;7.63;75.67;99610.47;5157174;27;43300;-77
2024/03/17 01:12:07;;;;;;;5.97;4.70;;;;;;;7.56;76.02;99608.06;5138689;27;39486;-74
2024/03/17 01:14:33;;;;;;;4.67;3.87;;;;;;;7.54;75.21;99619.63;5156371;27;42704;-75
2024/03/17 01:17:04;;;;;;;4.30;3.90;;;;;;;7.48;75.04;99620.69;5157196;27;43746;-78
2024/03/17 01:19:31;;;;;;;5.13;4.17;;;;;;;7.41;75.45;99618.34;5138422;27;43159;-78
2024/03/17 01:22:01;;;;;;;4.77;3.47;;;;;;;7.34;75.16;99622.97;5138502;27;38248;-77
2024/03/17 01:24:31;;;;;;;4.87;4.10;;;;;;;7.27;74.76;99621.50;5155547;27;42769;-77
2024/03/17 01:26:59;;;;;;;4.63;4.07;;;;;;;7.21;74.80;99616.44;5138113;27;41740;-79
2024/03/17 01:29:27;;;;;;;7.17;4.23;;;;;;;7.14;75.18;99615.81;5155633;27;42763;-80
2024/03/17 01:31:54;;;;;;;4.67;3.80;;;;;;;6.95;74.95;99592.81;5138065;27;38474;-78
2024/03/17 01:34:24;;;;;;;4.53;3.43;;;;;;;7.04;74.87;99609.16;5155607;27;41196;-78
2024/03/17 01:36:51;;;;;;;7.67;3.73;;;;;;;6.99;74.71;99600.56;5156712;27;42884;-79
2024/03/17 01:39:18;;;;;;;4.63;3.40;;;;;;;6.79;74.76;99582.84;5138957;27;40626;-78
2024/03/17 01:41:45;;;;;;;4.37;3.37;;;;;;;6.90;74.80;99594.78;5156524;27;40730;-79
2024/03/17 01:44:23;;;;;;;3.90;3.50;;;;;;;6.84;75.01;99593.22;5154537;27;41974;-75
2024/03/17 01:46:50;;;;;;;4.17;3.50;;;;;;;6.78;74.37;99590.81;5137899;27;42680;-77
2024/03/17 01:49:18;;;;;;;3.67;3.07;;;;;;;6.72;74.43;99586.59;5155493;27;41397;-79
2024/03/17 01:51:48;;;;;;;5.13;3.50;;;;;;;6.66;74.57;99592.09;5154928;27;40146;-76
2024/03/17 01:54:16;;;;;;;3.60;3.20;;;;;;;6.59;74.54;99585.31;5137521;27;40270;-75
2024/03/17 01:56:43;;;;;;;3.83;3.40;;;;;;;6.55;74.21;99578.47;5154766;27;44669;-77
2024/03/17 01:59:11;;;;;;;3.60;3.30;;;;;;;6.39;74.38;99561.47;5156121;27;42210;-77
2024/03/17 02:01:37;;;;;;;4.33;3.77;;;;;;;6.43;74.20;99574.44;5155367;27;40986;-76
2024/03/17 02:04:06;;;;;;;5.53;4.00;;;;;;;6.30;74.32;99564.41;5154719;27;41290;-78
2024/03/17 02:06:33;;;;;;;4.67;3.90;;;;;;;6.31;74.22;99579.25;5156057;27;43409;-76
2024/03/17 02:09:02;;;;;;;5.27;3.83;;;;;;;6.20;74.16;99562.97;5137762;27;41238;-80
2024/03/17 02:11:30;;;;;;;3.87;3.20;;;;;;;6.22;74.56;99575.19;5137069;27;39227;-77
2024/03/17 02:13:58;;;;;;;3.87;3.37;;;;;;;6.18;74.75;99572.72;5155101;27;41935;-79
2024/03/17 02:16:25;;;;;;;5.50;3.70;;;;;;;6.11;74.63;99567.66;5154707;27;42740;-76
2024/03/17 02:18:55;;;;;;;5.13;3.33;;;;;;;5.82;75.01;99527.41;5154629;27;41424;-76
2024/03/17 02:21:23;;;;;;;4.07;3.67;;;;;;;5.74;75.02;99509.28;5155019;27;41325;-79
2024/03/17 02:23:52;;;;;;;5.23;3.87;;;;;;;5.99;75.11;99556.69;5154956;27;42692;-79
2024/03/17 02:26:19;;;;;;;3.93;3.40;;;;;;;5.94;75.36;99559.44;5136963;27;44357;-75
2024/03/17 02:28:48;;;;;;;5.63;3.70;;;;;;;5.91;75.18;99561.34;5156026;27;42396;-75
2024/03/17 02:31:16;;;;;;;4.67;3.63;;;;;;;5.85;75.30;99564.97;5154584;27;39957;-78
2024/03/17 02:33:44;;;;;;;5.20;4.20;;;;;;;5.82;75.36;99561.56;5154777;27;42418;-77
2024/03/17 02:36:12;;;;;;;4.47;3.63;;;;;;;5.77;75.50;99561.75;5154021;27;41484;-80
2024/03/17 02:41:38;;;;;;;5.30;3.93;;;;;;;5.67;75.47;99557.69;5057939;28;39081;-76
2024/03/17 02:44:05;;;;;;;3.80;3.40;;;;;;;5.30;75.67;99511.56;5140800;27;42741;-76
2024/03/17 02:46:34;;;;;;;6.20;4.23;;;;;;;5.59;75.42;99562.31;5137008;27;41145;-76
2024/03/17 02:49:02;;;;;;;5.00;4.10;;;;;;;5.55;75.43;99568.56;5137062;27;41111;-78
2024/03/17 02:51:29;;;;;;;5.77;3.57;;;;;;;5.37;75.61;99547.22;5137039;27;40309;-77
2024/03/17 02:53:59;;;;;;;4.97;3.80;;;;;;;5.47;75.50;99573.19;5137081;27;43543;-77
2024/03/17 02:56:26;;;;;;;3.30;2.80;;;;;;;5.43;75.16;99563.69;5154307;27;44171;-80
2024/03/17 02:58:56;;;;;;;4.33;3.40;;;;;;;5.28;75.73;99547.50;5136975;27;41297;-77
2024/03/17 03:01:24;;;;;;;3.73;2.83;;;;;;;5.35;75.40;99562.16;5136649;27;40364;-79
2024/03/17 03:03:51;;;;;;;3.93;2.90;;;;;;;5.32;75.97;99564.00;5155938;27;42722;-76
2024/03/17 03:06:19;;;;;;;4.73;3.10;;;;;;;5.28;75.65;99565.88;5155354;27;41775;-75
2024/03/17 03:08:49;;;;;;;5.43;3.40;;;;;;;5.21;75.62;99555.59;5163983;27;42391;-76
2024/03/17 03:11:17;;;;;;;3.77;3.00;;;;;;;5.19;75.96;99560.91;5155667;27;38988;-77
2024/03/17 03:13:45;;;;;;;4.67;3.33;;;;;;;5.13;77.00;99558.44;5136909;27;40751;-77
2024/03/17 03:16:15;;;;;;;4.50;3.13;;;;;;;5.08;77.27;99549.81;5153591;27;42860;-78
2024/03/17 03:18:44;;;;;;;4.23;3.33;;;;;;;5.07;77.12;99550.72;5153876;27;41395;-76
2024/03/17 03:21:12;;;;;;;5.33;3.77;;;;;;;5.04;76.82;99549.09;5154930;27;40982;-80
2024/03/17 03:23:39;;;;;;;3.67;3.37;;;;;;;4.99;76.73;99555.34;5136512;27;40804;-76
2024/03/17 03:26:08;;;;;;;5.53;3.67;;;;;;;4.96;76.76;99560.69;5153663;27;41716;-76
2024/03/17 03:28:37;;;;;;;4.07;3.30;;;;;;;4.88;76.75;99562.69;5153584;27;43646;-76
2024/03/17 03:31:05;;;;;;;3.80;3.40;;;;;;;4.88;76.80;99568.78;5136106;27;39976;-78
2024/03/17 03:33:34;;;;;;;3.97;3.50;;;;;;;4.78;76.99;99569.09;5153468;27;40679;-78
2024/03/17 03:36:08;;;;;;;4.17;3.17;;;;;;;4.83;77.18;99581.16;5153191;27;42698;-78
2024/03/17 03:38:36;;;;;;;3.63;3.10;;;;;;;4.81;76.76;99579.50;5136283;27;42856;-80
2024/03/17 03:41:08;;;;;;;4.77;3.20;;;;;;;4.81;76.79;99583.00;5153462;27;41094;-75
2024/03/17 03:43:35;;;;;;;3.57;2.53;;;;;;;4.78;77.04;99582.22;5136405;27;40682;-74
2024/03/17 08:31:55;;;;;;;5.03;4.00;;;;;;;19.78;41.75;99671.50;5184666;27;21021;-78
2024/03/17 08:34:23;;;;;;;4.50;4.10;;;;;;;21.26;39.23;99693.97;5132410;27;38513;-79
2024/03/17 08:36:50;;;;;;;4.50;4.10;;;;;;;21.93;37.89;99698.31;5151258;27;41836;-81
2024/03/17 08:39:18;;;;;;;4.47;4.07;;;;;;;23.35;35.63;99699.47;5150883;27;42744;-78
2024/03/17 08:41:46;;;;;;;4.87;4.40;;;;;;;25.49;30.93;99739.84;5150253;27;41082;-80
2024/03/17 08:44:13;;;;;;;4.53;4.13;;;;;;;27.04;28.41;99743.84;5155864;27;40903;-77
2024/03/17 08:46:41;;;;;;;3.70;3.40;;;;;;;28.41;27.04;99749.97;5153616;27;42174;-80
2024/03/17 08:49:10;;;;;;;3.97;3.58;;;;;;;29.58;26.27;99761.63;5149353;27;42509;-77
2024/03/17 08:51:37;;;;;;;3.80;3.40;;;;;;;30.81;24.43;99763.75;5149302;27;41189;-75
2024/03/17 08:54:05;;;;;;;4.13;3.75;;;;;;;31.94;24.06;99746.53;5149420;27;39009;-80
2024/03/17 08:56:34;;;;;;;4.13;3.65;;;;;;;32.82;21.88;99762.41;5184055;27;42717;-77
2024/03/17 08:59:01;;;;;;;3.55;2.97;;;;;;;33.23;22.51;99750.16;5149956;27;42825;-80
2024/03/17 09:01:28;;;;;;;3.47;3.17;;;;;;;33.85;21.52;99754.81;5149701;27;43720;-78
2024/03/17 09:04:00;;;;;;;3.30;3.00;;;;;;;33.75;21.16;99753.59;5132082;27;39928;-80
2024/03/17 09:06:30;;;;;;;3.13;2.92;;;;;;;33.53;20.81;99750.38;5183294;27;42509;-80
2024/03/17 09:08:58;;;;;;;3.67;3.38;;;;;;;33.37;20.60;99746.28;5131373;27;44232;-77
2024/03/17 09:11:27;;;;;;;3.67;3.38;;;;;;;34.07;21.36;99737.91;5148541;27;40493;-77
2024/03/17 09:13:55;;;;;;;3.63;3.33;;;;;;;35.14;19.71;99747.44;5150037;27;40953;-80
2024/03/17 09:16:24;;;;;;;3.08;2.88;;;;;;;34.93;20.34;99727.63;5148839;27;42197;-77
2024/03/17 09:18:52;;;;;;;3.05;2.85;;;;;;;34.77;20.11;99733.75;5131570;27;45184;-79
2024/03/17 09:21:20;;;;;;;3.50;3.22;;;;;;;34.33;19.82;99737.66;5148394;27;41409;-79
2024/03/17 09:23:49;;;;;;;4.25;3.90;;;;;;;34.06;20.83;99733.47;5183678;27;40811;-80
2024/03/17 09:26:17;;;;;;;3.05;2.85;;;;;;;33.04;20.83;99724.47;5148668;27;41795;-79
2024/03/17 09:28:45;;;;;;;4.45;4.15;;;;;;;32.10;20.51;99733.22;5148272;27;41763;-79
2024/03/17 09:31:12;;;;;;;5.07;4.57;;;;;;;31.05;21.38;99697.53;5130591;27;42085;-80
2024/03/17 09:33:40;;;;;;;4.70;4.30;;;;;;;30.24;23.41;99697.44;5148835;27;40332;-81
2024/03/17 09:36:10;;;;;;;4.72;4.22;;;;;;;29.44;24.49;99678.78;5165951;27;42232;-78
2024/03/17 09:38:39;;;;;;;3.65;3.35;;;;;;;28.94;25.05;99694.22;5150231;27;43006;-81
2024/03/17 09:41:07;;;;;;;4.87;4.47;;;;;;;28.43;25.38;99668.03;5182047;27;42305;-80
2024/03/17 09:43:36;;;;;;;5.03;4.20;;;;;;;28.85;24.85;99681.75;5135619;27;40144;-82
2024/03/17 09:46:04;;;;;;;4.38;3.90;;;;;;;28.84;23.95;99677.34;5169328;27;41948;-78
2024/03/17 09:48:33;;;;;;;3.67;3.38;;;;;;;28.48;24.81;99676.47;5134677;27;42964;-80
2024/03/17 09:51:01;;;;;;;3.70;3.40;;;;;;;28.13;25.78;99654.41;5134126;27;40823;-78
2024/03/17 09:53:31;;;;;;;3.30;3.00;;;;;;;27.58;25.60;99671.16;5117590;27;39704;-79
2024/03/17 09:56:01;;;;;;;3.87;3.50;;;;;;;27.41;25.80;99662.31;5134303;27;42788;-78
2024/03/17 09:58:30;;;;;;;3.70;3.40;;;;;;;27.20;26.62;99658.59;5134450;27;42673;-78
2024/03/17 10:00:57;;;;;;;3.30;3.10;;;;;;;27.35;25.75;99664.91;5133927;27;40596;-78
2024/03/17 10:03:42;;;;;;;3.60;3.30;;;;;;;27.30;25.19;99665.47;5117646;27;38820;-80
2024/03/17 10:06:11;;;;;;;3.50;3.20;;;;;;;27.26;26.18;99655.13;5134556;27;40998;-79
2024/03/17 10:08:45;;;;;;;3.43;3.13;;;;;;;27.29;24.69;99663.78;5134446;27;42764;-78
2024/03/17 10:11:13;;;;;;;3.93;2.77;;;;;;;26.72;24.44;99664.16;5134829;27;42286;-77
2024/03/17 10:13:43;;;;;;;3.70;3.40;;;;;;;26.32;25.38;99638.09;5135622;27;39767;-82
2024/03/17 10:16:25;;;;;;;3.47;3.13;;;;;;;26.23;25.69;99649.13;5135144;27;42634;-79
2024/03/17 10:19:07;;;;;;;4.00;3.60;;;;;;;26.74;24.89;99661.25;5135484;27;43587;-82
2024/03/17 10:21:34;;;;;;;3.27;2.73;;;;;;;26.44;25.95;99662.97;5116798;27;42282;-80
2024/03/17 10:24:10;;;;;;;3.63;2.60;;;;;;;26.05;25.89;99652.09;5134466;27;38913;-82
2024/03/17 10:26:46;;;;;;;3.97;2.67;;;;;;;25.62;25.72;99666.94;5135227;27;42501;-84
2024/03/17 10:29:22;;;;;;;3.20;2.80;;;;;;;25.95;26.04;99663.16;5132166;27;43448;-76
2024/03/17 10:31:50;;;;;;;4.07;2.50;;;;;;;27.09;24.93;99657.13;5168672;27;43194;-79
2024/03/17 10:34:18;;;;;;;3.43;2.57;;;;;;;28.08;24.04;99632.31;5151456;27;39021;-78
2024/03/17 10:36:47;;;;;;;2.75;2.40;;;;;;;30.07;22.25;99663.28;5116482;27;43038;-79
2024/03/17 10:39:28;;;;;;;3.35;2.08;;;;;;;31.65;21.84;99651.97;5116216;27;42379;-80
2024/03/17 10:42:00;;;;;;;2.60;2.40;;;;;;;32.73;20.80;99655.88;5131737;27;42265;-78
2024/03/17 10:44:30;;;;;;;2.30;2.05;;;;;;;33.32;20.01;99666.47;5131445;27;39946;-82
2024/03/17 10:46:59;;;;;;;2.38;2.17;;;;;;;34.49;19.01;99664.69;5134495;27;42837;-81
2024/03/17 10:49:32;;;;;;;2.67;2.17;;;;;;;35.44;17.94;99675.84;5115870;27;42776;-77
2024/03/17 10:52:00;;;;;;;2.55;1.75;;;;;;;35.95;17.60;99677.94;5133383;27;41173;-79
2024/03/17 10:54:29;;;;;;;2.10;1.58;;;;;;;36.48;17.51;99661.16;5149178;27;40019;-80
2024/03/17 10:56:58;;;;;;;2.10;1.90;;;;;;;37.27;17.04;99669.63;5133163;27;41726;-80
2024/03/17 10:59:40;;;;;;;2.17;1.90;;;;;;;37.54;16.88;99669.81;5115399;27;42170;-83
2024/03/17 11:02:23;;;;;;;2.25;2.05;;;;;;;37.78;16.81;99667.72;5131524;27;43184;-78
2024/03/17 11:04:52;;;;;;;2.30;2.10;;;;;;;37.70;15.85;99669.00;5116128;27;39192;-75
2024/03/17 11:07:21;;;;;;;2.45;1.80;;;;;;;37.71;16.33;99662.38;5133350;27;42090;-79
2024/03/17 11:09:52;;;;;;;1.90;1.80;;;;;;;37.75;15.72;99658.84;5149667;27;41917;-77
2024/03/17 11:12:45;;;;;;;2.38;2.17;;;;;;;37.95;15.79;99654.72;5150258;27;41247;-79
2024/03/17 11:15:40;;;;;;;2.90;2.38;;;;;;;37.77;15.97;99658.59;5100706;27;38876;-78
2024/03/17 11:18:41;;;;;;;3.72;2.63;;;;;;;37.76;15.20;99673.50;5133035;27;41007;-78
2024/03/17 11:21:21;;;;;;;2.00;1.80;;;;;;;38.13;16.13;99656.38;5110264;27;44698;-78
2024/03/17 11:24:03;;;;;;;2.20;1.92;;;;;;;39.00;15.36;99637.78;5116215;27;42366;-79
2024/03/17 11:26:32;;;;;;;2.67;2.30;;;;;;;39.18;14.84;99635.75;5168438;27;40879;-76
2024/03/17 11:29:02;;;;;;;2.88;2.08;;;;;;;38.76;13.46;99656.63;5142398;27;42373;-74
2024/03/17 11:31:52;;;;;;;2.85;1.92;;;;;;;37.68;14.15;99655.44;5138794;27;43133;-78
2024/03/17 11:34:36;;;;;;;2.78;1.90;;;;;;;37.20;15.25;99639.41;5131286;27;42602;-77
2024/03/17 11:37:08;;;;;;;2.20;2.10;;;;;;;36.58;15.47;99633.78;5129963;27;39858;-75
2024/03/17 11:39:55;;;;;;;2.60;2.40;;;;;;;35.56;16.50;99630.69;5131861;27;42873;-77
2024/03/17 11:42:24;;;;;;;3.65;2.25;;;;;;;34.14;17.80;99625.94;5130513;27;42886;-75
2024/03/17 11:45:00;;;;;;;3.25;2.50;;;;;;;32.93;18.41;99623.63;5114500;27;42376;-74
2024/03/17 11:47:40;;;;;;;2.55;2.30;;;;;;;31.91;19.17;99607.19;5132214;27;40078;-76
2024/03/17 11:50:10;;;;;;;2.28;2.08;;;;;;;31.04;20.30;99592.72;5117685;27;42018;-77
2024/03/17 11:52:40;;;;;;;2.80;2.10;;;;;;;30.54;20.41;99602.31;5135166;27;42820;-77
2024/03/17 11:55:15;;;;;;;2.87;2.60;;;;;;;29.91;20.69;99598.88;5135633;27;44785;-76
2024/03/17 11:57:45;;;;;;;3.00;2.70;;;;;;;29.17;21.40;99541.28;5167719;27;40022;-77
2024/03/17 12:00:23;;;;;;;3.23;3.00;;;;;;;29.02;20.93;99596.97;5135009;27;42721;-78
2024/03/17 12:02:52;;;;;;;3.60;3.10;;;;;;;28.51;22.44;99567.06;5133132;27;42973;-79
2024/03/17 12:05:20;;;;;;;3.27;2.60;;;;;;;28.26;22.09;99568.47;5133323;27;42959;-78
2024/03/17 12:07:48;;;;;;;3.33;2.70;;;;;;;27.87;22.05;99566.91;5115103;27;38969;-77
2024/03/17 12:10:14;;;;;;;2.83;2.47;;;;;;;27.70;22.77;99573.56;5114200;27;41730;-80
2024/03/17 12:12:42;;;;;;;5.87;3.40;;;;;;;27.29;22.55;99570.44;5131803;27;41914;-80
2024/03/17 12:15:17;;;;;;;2.80;2.60;;;;;;;26.81;22.61;99578.00;5114074;27;42373;-79
2024/03/17 12:17:44;;;;;;;2.50;2.30;;;;;;;26.61;23.31;99560.47;5129964;27;40310;-74
2024/03/17 12:20:28;;;;;;;3.00;2.20;;;;;;;26.93;23.71;99559.41;5132809;27;43079;-77
2024/03/17 12:22:57;;;;;;;2.50;2.30;;;;;;;27.01;24.20;99534.84;5114949;27;42322;-80
2024/03/17 12:25:26;;;;;;;2.50;2.30;;;;;;;27.10;24.83;99541.88;5131510;27;42919;-81
2024/03/17 12:27:53;;;;;;;3.13;2.40;;;;;;;26.90;24.96;99537.97;5132241;27;38823;-77
2024/03/17 12:30:20;;;;;;;2.47;2.23;;;;;;;26.59;25.26;99530.75;5130899;27;42490;-82
2024/03/17 12:32:50;;;;;;;2.27;2.07;;;;;;;26.33;25.58;99535.72;5133176;27;43534;-78
2024/03/17 12:35:18;;;;;;;3.00;2.77;;;;;;;26.08;25.14;99541.28;5148502;27;41098;-77
2024/03/17 12:37:46;;;;;;;3.00;2.80;;;;;;;25.75;24.63;99531.59;5131583;27;40752;-77
2024/03/17 12:40:20;;;;;;;3.00;2.70;;;;;;;25.45;24.15;99551.34;5131240;27;41578;-77
2024/03/17 12:42:51;;;;;;;2.50;2.13;;;;;;;24.86;25.56;99529.03;5132427;27;42947;-80
2024/03/17 12:45:22;;;;;;;3.23;2.57;;;;;;;24.60;25.43;99524.66;5130910;27;42505;-81
2024/03/17 12:47:51;;;;;;;2.80;2.57;;;;;;;24.55;26.50;99507.22;5131530;27;40213;-76
2024/03/17 12:50:19;;;;;;;3.23;2.90;;;;;;;24.72;25.40;99527.03;5133480;27;42654;-74
2024/03/17 12:52:55;;;;;;;2.83;2.63;;;;;;;24.72;24.96;99532.47;5136421;27;43664;-79
2024/03/17 13:01:01;;;;;;;2.50;2.30;;;;;;;26.06;25.53;99518.03;5129521;27;42430;-78
2024/03/17 13:03:31;;;;;;;2.43;2.23;;;;;;;26.50;25.56;99512.84;5131223;27;42963;-79
2024/03/17 13:06:02;;;;;;;2.60;2.10;;;;;;;26.96;25.01;99515.50;5130815;27;41780;-78
2024/03/17 13:08:31;;;;;;;3.87;2.10;;;;;;;27.06;24.55;99516.13;5131230;27;40033;-78
2024/03/17 13:10:59;;;;;;;2.33;2.13;;;;;;;27.03;25.07;99505.59;5113598;27;39985;-77
2024/03/17 13:13:26;;;;;;;2.30;1.93;;;;;;;26.77;24.30;99517.72;5165586;27;42642;-75
2024/03/17 13:15:54;;;;;;;3.00;1.97;;;;;;;26.58;24.84;99501.88;5113531;27;41196;-82
2024/03/17 13:18:21;;;;;;;1.67;1.57;;;;;;;26.46;24.95;99508.78;5116687;27;38842;-81
2024/03/17 13:20:51;;;;;;;3.63;1.70;;;;;;;26.26;25.32;99502.13;5134558;27;43200;-76
2024/03/17 13:23:21;;;;;;;1.97;1.77;;;;;;;26.11;24.42;99499.31;5134519;27;44437;-81
2024/03/17 13:25:49;;;;;;;2.23;1.87;;;;;;;25.92;25.27;99497.94;5134460;27;42592;-82
2024/03/17 13:28:16;;;;;;;2.43;1.77;;;;;;;25.68;25.79;99492.63;5135853;27;40031;-77
2024/03/17 13:30:44;;;;;;;2.30;2.10;;;;;;;25.42;25.13;99499.16;5135185;27;43166;-79
2024/03/17 13:33:13;;;;;;;2.20;1.73;;;;;;;25.15;25.65;99486.00;5116925;27;42590;-76
2024/03/17 13:35:41;;;;;;;2.63;2.20;;;;;;;25.09;25.71;99481.28;5116730;27;43180;-80
2024/03/17 13:38:10;;;;;;;2.00;1.80;;;;;;;25.12;25.86;99480.94;5134490;27;40059;-77
2024/03/17 13:40:41;;;;;;;2.37;1.80;;;;;;;25.16;26.44;99476.00;5135230;27;42706;-76
2024/03/17 13:43:10;;;;;;;1.90;1.80;;;;;;;25.21;26.84;99451.94;5134102;27;41474;-83
2024/03/17 13:45:40;;;;;;;1.97;1.77;;;;;;;25.47;26.46;99467.94;5135740;27;43136;-77
2024/03/17 13:48:10;;;;;;;3.73;2.00;;;;;;;25.62;26.63;99449.91;5135506;27;41659;-75
2024/03/17 13:50:38;;;;;;;2.43;1.87;;;;;;;25.77;26.23;99464.44;5116937;27;42423;-77
2024/03/17 13:53:06;;;;;;;2.50;1.73;;;;;;;25.68;26.17;99460.06;5116909;27;43764;-77
2024/03/17 13:55:35;;;;;;;3.47;2.23;;;;;;;25.64;26.33;99442.44;5133778;27;42120;-79
2024/03/17 13:58:04;;;;;;;1.80;1.70;;;;;;;25.64;26.54;99445.16;5133908;27;38904;-76
2024/03/17 14:00:35;;;;;;;2.97;1.77;;;;;;;25.59;26.41;99451.06;5133127;27;41953;-73
2024/03/17 14:03:03;;;;;;;2.50;1.97;;;;;;;25.52;26.73;99438.41;5131241;27;42807;-77
2024/03/17 14:05:32;;;;;;;2.93;1.93;;;;;;;25.39;27.31;99439.81;5116752;27;41712;-77
2024/03/17 14:08:00;;;;;;;1.77;1.67;;;;;;;25.23;27.33;99431.75;5137239;27;40043;-75
2024/03/17 14:10:28;;;;;;;2.10;1.90;;;;;;;24.93;26.95;99430.69;5142914;27;42167;-77
2024/03/17 14:12:56;;;;;;;2.57;2.37;;;;;;;24.42;26.44;99421.09;5135547;27;41983;-76
2024/03/17 14:15:26;;;;;;;2.00;1.67;;;;;;;24.03;27.20;99425.44;5134669;27;42302;-79
2024/03/17 14:17:53;;;;;;;3.53;2.03;;;;;;;23.68;27.83;99418.44;5168326;27;39732;-77
2024/03/17 14:20:21;;;;;;;2.10;1.97;;;;;;;23.49;28.96;99408.75;5133357;27;42223;-78
2024/03/17 14:22:53;;;;;;;2.30;1.97;;;;;;;23.45;28.57;99410.94;5150890;27;42937;-79
2024/03/17 14:25:21;;;;;;;2.00;1.90;;;;;;;23.40;29.18;99405.16;5115869;27;42587;-75
2024/03/17 14:27:49;;;;;;;1.70;1.60;;;;;;;23.36;29.28;99403.81;5133670;27;39869;-77
2024/03/17 14:30:18;;;;;;;1.73;1.60;;;;;;;23.22;29.39;99380.97;5134119;27;42847;-78
2024/03/17 14:32:48;;;;;;;2.77;1.90;;;;;;;23.18;28.53;99395.78;5134640;27;43722;-75
2024/03/17 14:35:17;;;;;;;2.53;1.87;;;;;;;22.97;28.92;99391.81;5132897;27;41254;-76
2024/03/17 14:37:47;;;;;;;3.03;2.40;;;;;;;22.76;28.61;99394.91;5133259;27;38605;-77
2024/03/17 14:40:21;;;;;;;3.03;2.10;;;;;;;22.67;29.38;99379.63;5115433;27;42217;-77
2024/03/17 14:42:49;;;;;;;2.20;1.70;;;;;;;22.67;29.97;99374.25;5115898;27;41744;-79
2024/03/17 14:45:16;;;;;;;2.10;1.90;;;;;;;22.66;29.93;99372.53;5132765;27;43234;-79
2024/03/17 14:47:45;;;;;;;3.23;2.03;;;;;;;22.41;29.58;99369.69;5115449;27;39837;-79
2024/03/17 14:50:15;;;;;;;2.10;1.77;;;;;;;22.35;29.63;99364.94;5114773;27;42125;-79
2024/03/17 14:52:43;;;;;;;2.83;2.10;;;;;;;22.16;29.54;99365.13;5132556;27;42309;-78
2024/03/17 14:55:11;;;;;;;2.23;1.80;;;;;;;21.88;29.92;99356.28;5131921;27;41386;-83
2024/03/17 14:57:39;;;;;;;1.90;1.80;;;;;;;21.54;nan;99348.03;5134061;27;40018;-79
2024/03/17 15:00:15;;;;;;;1.97;1.77;;;;;;;21.50;30.74;99352.06;5131193;27;41899;-76
2024/03/17 15:02:43;;;;;;;2.37;2.17;;;;;;;21.39;31.56;99349.56;5129661;27;43538;-81
2024/03/17 15:05:11;;;;;;;2.77;2.57;;;;;;;21.22;31.38;99347.69;5149104;27;42570;-76
2024/03/17 15:07:39;;;;;;;3.67;3.37;;;;;;;21.01;31.47;99346.09;5134284;27;40559;-79
2024/03/17 15:10:09;;;;;;;3.23;2.93;;;;;;;20.90;32.12;99335.50;5132154;27;41517;-84
2024/03/17 15:12:37;;;;;;;3.97;3.30;;;;;;;20.71;32.41;99339.16;5130191;27;43527;-79
2024/03/17 15:15:07;;;;;;;5.67;3.00;;;;;;;20.51;33.23;99331.31;5114137;27;41081;-78
2024/03/17 15:17:35;;;;;;;4.03;3.20;;;;;;;20.32;33.58;99327.63;5132271;27;39096;-79
2024/03/17 15:20:08;;;;;;;4.83;3.53;;;;;;;20.13;33.63;99319.63;5114578;27;40772;-78
2024/03/17 15:22:35;;;;;;;3.60;3.27;;;;;;;19.91;33.42;99318.09;5130557;27;42730;-80
2024/03/17 15:25:06;;;;;;;3.77;3.47;;;;;;;19.60;33.98;99325.47;5132917;27;43237;-77
2024/03/17 15:27:33;;;;;;;3.97;3.67;;;;;;;19.31;33.97;99327.25;5133201;27;39846;-82
2024/03/17 15:30:00;;;;;;;3.87;3.47;;;;;;;19.04;34.81;99322.53;5130440;27;42803;-80
2024/03/17 15:32:28;;;;;;;3.53;3.10;;;;;;;18.81;34.61;99326.44;5131756;27;44752;-77
2024/03/17 15:34:58;;;;;;;4.23;3.83;;;;;;;18.57;35.13;99329.44;5131058;27;42386;-76
2024/03/17 15:37:25;;;;;;;4.23;3.43;;;;;;;18.37;35.40;99312.41;5131920;27;40419;-80
2024/03/17 15:39:55;;;;;;;3.60;3.23;;;;;;;18.08;35.40;99290.81;5129864;27;41921;-82
2024/03/17 15:42:24;;;;;;;4.23;3.27;;;;;;;17.96;36.63;99286.50;5114178;27;43123;-82
2024/03/17 15:44:51;;;;;;;5.77;4.07;;;;;;;17.93;36.45;99297.47;5113469;27;42308;-81
2024/03/17 15:47:20;;;;;;;6.00;3.50;;;;;;;17.89;36.71;99307.63;5131945;27;39881;-80
2024/03/17 15:49:47;;;;;;;4.90;3.23;;;;;;;17.72;36.85;99293.97;5130841;27;40111;-77
2024/03/17 15:52:15;;;;;;;3.40;3.07;;;;;;;17.73;37.05;99299.19;5131029;27;41825;-78
2024/03/17 15:54:42;;;;;;;3.40;3.10;;;;;;;17.67;37.10;99306.91;5130542;27;44060;-80
2024/03/17 15:57:10;;;;;;;3.80;3.40;;;;;;;17.59;37.41;99300.31;5131500;27;39717;-81
2024/03/17 15:59:40;;;;;;;5.03;3.13;;;;;;;17.47;37.24;99305.84;5112886;27;41610;-79
2024/03/17 16:02:10;;;;;;;4.87;3.30;;;;;;;17.36;37.45;99314.78;5131108;27;42934;-80
2024/03/17 16:04:38;;;;;;;4.10;2.93;;;;;;;17.18;37.30;99294.91;5131449;27;42544;-78
2024/03/17 16:07:06;;;;;;;4.17;3.67;;;;;;;17.08;37.74;99288.59;5131032;27;38932;-76
2024/03/17 16:09:33;;;;;;;3.47;3.17;;;;;;;17.13;37.82;99302.47;5112896;27;41993;-76
2024/03/17 16:12:01;;;;;;;4.93;4.03;;;;;;;17.03;38.06;99301.53;5113928;27;41789;-80
2024/03/17 16:14:28;;;;;;;5.13;3.70;;;;;;;16.92;38.33;99298.88;5113000;27;42035;-78
2024/03/17 16:16:57;;;;;;;5.17;3.67;;;;;;;16.82;38.56;99285.38;5130700;27;39900;-74
2024/03/17 16:19:26;;;;;;;4.60;4.10;;;;;;;16.72;38.98;99282.59;5131132;27;41879;-77
2024/03/17 16:21:54;;;;;;;4.93;4.27;;;;;;;16.62;39.10;99297.69;5132097;27;43038;-81
2024/03/17 16:24:21;;;;;;;3.70;3.40;;;;;;;16.51;39.24;99295.00;5130001;27;41460;-79
2024/03/17 16:26:49;;;;;;;6.23;3.87;;;;;;;16.42;39.62;99291.25;5165648;27;39656;-78
2024/03/17 16:29:16;;;;;;;4.10;3.27;;;;;;;16.33;39.48;99285.75;5131572;27;42013;-81
2024/03/17 16:31:44;;;;;;;4.10;3.70;;;;;;;16.24;39.83;99286.50;5130736;27;42444;-79
2024/03/17 16:34:16;;;;;;;4.27;3.37;;;;;;;16.17;40.47;99281.66;5112708;27;41052;-77
2024/03/17 16:36:46;;;;;;;3.63;3.30;;;;;;;16.05;40.41;99277.25;5113259;27;39429;-79
2024/03/17 16:39:14;;;;;;;4.40;3.60;;;;;;;16.05;40.39;99282.59;5112817;27;41548;-79
2024/03/17 16:41:41;;;;;;;4.67;3.70;;;;;;;16.00;40.49;99289.25;5112920;27;42614;-79